Time;durP1;ratioP1;P1;durP2;ratioP2;P2;SDS_P1;SDS_P2;PMS_P1;PMS_P2;Temp;Humidity;BMP_temperature;BMP_pressure;BME280_temperature;BME280_humidity;BME280_pressure;Samples;Min_cycle;Max_cycle;Signal;HPM_P1;HPM_P2
2021/12/08 00:01:07;;;;;;;;;;;0.40;99.90;;;;;;5015169;28;20454;-79
2021/12/08 00:03:33;;;;;;;;;;;0.40;99.90;;;;;;4997896;28;20032;-78
2021/12/08 00:05:59;;;;;;;;;;;0.40;99.90;;;;;;5001646;28;20534;-79
2021/12/08 00:08:28;;;;;;;;;;;0.40;99.90;;;;;;4996274;28;19953;-79
2021/12/08 00:13:23;;;;;;;;;;;0.30;99.90;;;;;;4997003;28;19920;-79
2021/12/08 00:15:50;;;;;;;;;;;0.40;99.90;;;;;;4988188;28;20000;-78
2021/12/08 00:18:17;;;;;;;;;;;0.30;99.90;;;;;;5013814;28;19920;-79
2021/12/08 00:20:45;;;;;;;;;;;0.30;99.90;;;;;;4997688;28;19917;-79
2021/12/08 00:23:11;;;;;;;;;;;0.30;99.90;;;;;;5014835;28;20283;-79
2021/12/08 00:25:37;;;;;;;;;;;0.30;99.90;;;;;;4993795;28;19909;-80
2021/12/08 00:28:04;;;;;;;;;;;0.20;99.90;;;;;;5015129;28;19951;-79
2021/12/08 00:30:31;;;;;;;;;;;0.20;99.90;;;;;;5013254;28;19936;-78
2021/12/08 00:32:58;;;;;;;;;;;0.20;99.90;;;;;;4981904;28;19913;-78
2021/12/08 00:35:25;;;;;;;;;;;0.20;99.90;;;;;;4995290;28;19913;-78
2021/12/08 00:37:50;;;;;;;;;;;0.20;99.90;;;;;;5007933;28;19925;-79
2021/12/08 00:40:17;;;;;;;;;;;0.30;99.90;;;;;;5003505;28;19989;-79
2021/12/08 00:42:43;;;;;;;;;;;0.30;99.90;;;;;;5001641;28;19996;-81
2021/12/08 00:45:10;;;;;;;;;;;0.30;99.90;;;;;;4976547;28;19924;-80
2021/12/08 00:47:36;;;;;;;;;;;0.30;99.90;;;;;;5001873;28;19910;-79
2021/12/08 00:50:03;;;;;;;;;;;0.30;99.90;;;;;;5000922;28;19917;-80
2021/12/08 00:52:31;;;;;;;;;;;0.30;99.90;;;;;;5018892;28;19940;-80
2021/12/08 00:54:57;;;;;;;;;;;0.30;99.90;;;;;;4970882;28;19952;-80
2021/12/08 00:57:22;;;;;;;;;;;0.40;99.90;;;;;;5000334;28;19909;-79
2021/12/08 00:59:48;;;;;;;;;;;0.30;99.90;;;;;;4998650;28;19910;-79
2021/12/08 01:02:13;;;;;;;;;;;0.40;99.90;;;;;;4984037;28;19917;-80
2021/12/08 01:04:39;;;;;;;;;;;0.40;99.90;;;;;;5001785;28;19949;-79
2021/12/08 01:07:05;;;;;;;;;;;0.50;99.90;;;;;;5022439;28;19956;-78
2021/12/08 01:09:31;;;;;;;;;;;0.50;99.90;;;;;;5021252;28;19917;-79
2021/12/08 01:11:59;;;;;;;;;;;0.50;99.90;;;;;;5004553;28;19913;-79
2021/12/08 01:14:24;;;;;;;;;;;0.50;99.90;;;;;;5001965;28;19920;-80
2021/12/08 01:16:51;;;;;;;;;;;0.50;99.90;;;;;;5006573;28;19909;-79
2021/12/08 01:19:18;;;;;;;;;;;0.50;99.90;;;;;;4987231;28;19968;-79
2021/12/08 01:21:43;;;;;;;;;;;0.50;99.90;;;;;;4997366;28;20141;-79
2021/12/08 01:24:10;;;;;;;;;;;0.50;99.90;;;;;;5008458;28;20008;-80
2021/12/08 01:26:35;;;;;;;;;;;0.50;99.90;;;;;;5018225;28;20279;-80
2021/12/08 01:29:02;;;;;;;;;;;0.50;99.90;;;;;;4996690;28;19913;-79
2021/12/08 01:31:28;;;;;;;;;;;0.50;99.90;;;;;;5016108;28;20272;-79
2021/12/08 01:33:54;;;;;;;;;;;0.50;99.90;;;;;;5018167;28;20398;-80
2021/12/08 01:36:20;;;;;;;;;;;0.50;99.90;;;;;;5016812;28;19914;-78
2021/12/08 01:38:45;;;;;;;;;;;0.50;99.90;;;;;;5017091;28;19924;-78
2021/12/08 01:41:12;;;;;;;;;;;0.50;99.90;;;;;;5001114;28;19913;-80
2021/12/08 01:43:43;;;;;;;;;;;0.50;99.90;;;;;;4997926;28;19924;-79
2021/12/08 01:46:10;;;;;;;;;;;0.50;99.90;;;;;;4999115;28;20008;-80
2021/12/08 01:48:37;;;;;;;;;;;0.50;99.90;;;;;;5009730;28;20449;-78
2021/12/08 01:51:13;;;;;;;;;;;0.50;99.90;;;;;;5002657;28;19973;-79
2021/12/08 01:53:40;;;;;;;;;;;0.50;99.90;;;;;;5018913;28;20171;-79
2021/12/08 01:56:07;;;;;;;;;;;0.50;99.90;;;;;;5018229;28;19906;-79
2021/12/08 01:58:33;;;;;;;;;;;0.50;99.90;;;;;;5015327;28;20323;-80
2021/12/08 02:01:00;;;;;;;;;;;0.50;99.90;;;;;;5015279;28;19913;-79
2021/12/08 02:03:26;;;;;;;;;;;0.40;99.90;;;;;;4982817;28;19910;-79
2021/12/08 02:05:51;;;;;;;;;;;0.40;99.90;;;;;;4993028;28;19993;-79
2021/12/08 02:08:17;;;;;;;;;;;0.40;99.90;;;;;;5018334;28;19960;-79
2021/12/08 02:10:43;;;;;;;;;;;0.40;99.90;;;;;;5018777;28;20344;-79
2021/12/08 02:13:09;;;;;;;;;;;0.30;99.90;;;;;;5000618;28;20176;-80
2021/12/08 02:15:37;;;;;;;;;;;0.30;99.90;;;;;;4981160;28;20141;-80
2021/12/08 02:18:03;;;;;;;;;;;0.30;99.90;;;;;;5017199;28;19921;-79
2021/12/08 02:20:29;;;;;;;;;;;0.30;99.90;;;;;;4986761;28;19939;-79
2021/12/08 02:22:55;;;;;;;;;;;0.20;99.90;;;;;;4986377;28;19945;-80
2021/12/08 02:25:22;;;;;;;;;;;0.30;99.90;;;;;;5007962;28;19956;-80
2021/12/08 02:27:48;;;;;;;;;;;0.30;99.90;;;;;;5005018;28;19968;-80
2021/12/08 02:49:23;;;;;;;;;;;0.20;99.90;;;;;;4984931;28;19992;-80
2021/12/08 02:51:50;;;;;;;;;;;0.20;99.90;;;;;;5000427;28;19953;-80
2021/12/08 02:54:16;;;;;;;;;;;0.20;99.90;;;;;;5016217;28;20000;-81
2021/12/08 02:56:41;;;;;;;;;;;0.20;99.90;;;;;;5020211;28;19952;-79
2021/12/08 02:59:07;;;;;;;;;;;0.10;99.90;;;;;;4984199;28;19913;-79
2021/12/08 03:01:33;;;;;;;;;;;0.10;99.90;;;;;;5000630;28;20292;-81
2021/12/08 03:03:59;;;;;;;;;;;0.10;99.90;;;;;;5019027;28;19943;-80
2021/12/08 03:06:25;;;;;;;;;;;0.10;99.90;;;;;;5018921;28;19913;-81
2021/12/08 03:08:50;;;;;;;;;;;0.00;99.90;;;;;;5006062;28;20396;-79
2021/12/08 03:11:16;;;;;;;;;;;0.00;99.90;;;;;;5019892;28;19913;-80
2021/12/08 03:13:43;;;;;;;;;;;0.10;99.90;;;;;;5016811;28;19947;-81
2021/12/08 03:16:10;;;;;;;;;;;0.10;99.90;;;;;;5001915;28;19909;-79
2021/12/08 03:18:40;;;;;;;;;;;0.10;99.90;;;;;;5016435;28;19985;-80
2021/12/08 03:21:07;;;;;;;;;;;0.10;99.90;;;;;;5005213;28;19925;-79
2021/12/08 03:24:05;;;;;;;;;;;0.10;99.90;;;;;;5018350;28;19913;-80
2021/12/08 03:26:27;;;;;;;;;;;0.10;99.90;;;;;;5015929;28;19913;-80
2021/12/08 03:29:01;;;;;;;;;;;0.10;99.90;;;;;;5021235;28;20367;-80
2021/12/08 03:31:36;;;;;;;;;;;0.10;99.90;;;;;;5002323;28;19967;-80
2021/12/08 03:34:01;;;;;;;;;;;0.10;99.90;;;;;;5001024;28;19916;-80
2021/12/08 03:36:27;;;;;;;;;;;0.20;99.90;;;;;;5019765;28;19906;-80
2021/12/08 03:38:52;;;;;;;;;;;0.20;99.90;;;;;;4998916;28;19910;-80
2021/12/08 03:41:18;;;;;;;;;;;0.20;99.90;;;;;;5019088;28;19913;-81
2021/12/08 03:43:44;;;;;;;;;;;0.20;99.90;;;;;;5019339;28;19913;-81
2021/12/08 03:46:12;;;;;;;;;;;0.20;99.90;;;;;;5023374;28;19909;-80
2021/12/08 03:48:46;;;;;;;;;;;0.20;99.90;;;;;;5025218;28;19914;-80
2021/12/08 03:51:11;;;;;;;;;;;0.20;99.90;;;;;;5019664;28;19960;-81
2021/12/08 03:53:37;;;;;;;;;;;0.30;99.90;;;;;;5004697;28;19905;-79
2021/12/08 03:56:03;;;;;;;;;;;0.30;99.90;;;;;;4989501;28;19910;-80
2021/12/08 03:58:29;;;;;;;;;;;0.30;99.90;;;;;;4987279;28;19964;-80
2021/12/08 04:00:55;;;;;;;;;;;0.20;99.90;;;;;;5021419;28;20023;-81
2021/12/08 04:03:21;;;;;;;;;;;0.20;99.90;;;;;;5000916;28;19905;-80
2021/12/08 04:05:59;;;;;;;;;;;0.20;99.90;;;;;;5005720;28;19964;-80
2021/12/08 04:08:32;;;;;;;;;;;0.20;99.90;;;;;;5002890;28;19936;-80
2021/12/08 04:11:00;;;;;;;;;;;0.20;99.90;;;;;;5004732;28;19913;-80
2021/12/08 04:13:32;;;;;;;;;;;0.20;99.90;;;;;;5010635;28;19944;-80
2021/12/08 04:15:58;;;;;;;;;;;0.20;99.90;;;;;;5017101;28;19909;-80
2021/12/08 04:18:23;;;;;;;;;;;0.20;99.90;;;;;;4979980;28;19968;-79
2021/12/08 04:20:51;;;;;;;;;;;0.20;99.90;;;;;;4998344;28;20326;-80
2021/12/08 04:23:18;;;;;;;;;;;0.20;99.90;;;;;;5027093;28;19960;-80
2021/12/08 04:25:46;;;;;;;;;;;0.20;99.90;;;;;;5021227;28;19909;-79
2021/12/08 04:28:15;;;;;;;;;;;0.20;99.90;;;;;;4999694;28;19967;-80
2021/12/08 04:30:43;;;;;;;;;;;0.30;99.90;;;;;;5024866;28;19910;-80
2021/12/08 04:33:09;;;;;;;;;;;0.20;99.90;;;;;;5004617;28;19948;-80
2021/12/08 04:35:35;;;;;;;;;;;0.30;99.90;;;;;;5024382;28;20550;-80
2021/12/08 04:38:04;;;;;;;;;;;0.30;99.90;;;;;;4990496;28;19913;-80
2021/12/08 04:40:38;;;;;;;;;;;0.30;99.90;;;;;;5022402;28;19948;-80
2021/12/08 04:45:47;;;;;;;;;;;0.30;99.90;;;;;;5006910;28;19917;-79
2021/12/08 04:48:25;;;;;;;;;;;0.30;99.90;;;;;;5000561;28;19917;-80
2021/12/08 05:04:54;;;;;;;;;;;0.30;99.90;;;;;;5003277;28;20000;-79
2021/12/08 05:09:55;;;;;;;;;;;0.30;99.90;;;;;;5018336;28;20395;-79
2021/12/08 05:12:23;;;;;;;;;;;0.40;99.90;;;;;;5020931;28;19916;-79
2021/12/08 05:15:09;;;;;;;;;;;0.40;99.90;;;;;;5000793;28;19936;-79
2021/12/08 05:17:37;;;;;;;;;;;0.40;99.90;;;;;;5000377;28;20410;-79
2021/12/08 05:20:07;;;;;;;;;;;0.50;99.90;;;;;;4983866;28;20008;-79
2021/12/08 05:22:36;;;;;;;;;;;0.40;99.90;;;;;;4997240;28;20323;-79
2021/12/08 05:25:04;;;;;;;;;;;0.40;99.90;;;;;;5018819;28;19906;-80
2021/12/08 05:27:40;;;;;;;;;;;0.40;99.90;;;;;;5017085;28;19932;-78
2021/12/08 05:30:12;;;;;;;;;;;0.40;99.90;;;;;;5003075;28;19910;-79
2021/12/08 05:32:38;;;;;;;;;;;0.40;99.90;;;;;;5011098;28;19936;-80
2021/12/08 05:35:06;;;;;;;;;;;0.40;99.90;;;;;;4998965;28;19910;-80
2021/12/08 05:37:32;;;;;;;;;;;0.40;99.90;;;;;;5016225;28;19916;-78
2021/12/08 05:39:58;;;;;;;;;;;0.30;99.90;;;;;;5017777;28;19940;-78
2021/12/08 05:42:27;;;;;;;;;;;0.30;99.90;;;;;;5020781;23;20004;-85
2021/12/08 05:44:53;;;;;;;;;;;0.30;99.90;;;;;;4984831;28;19979;-85
2021/12/08 05:47:21;;;;;;;;;;;0.30;99.90;;;;;;5004679;28;20244;-85
2021/12/08 05:49:48;;;;;;;;;;;0.30;99.90;;;;;;4995123;28;19913;-84
2021/12/08 05:52:13;;;;;;;;;;;0.40;99.90;;;;;;5011677;28;19916;-84
2021/12/08 05:54:40;;;;;;;;;;;0.40;99.90;;;;;;5008188;28;20001;-85
2021/12/08 05:57:08;;;;;;;;;;;0.40;99.90;;;;;;4978585;28;20395;-84
2021/12/08 05:59:34;;;;;;;;;;;0.40;99.90;;;;;;4963049;28;19949;-86
2021/12/08 06:02:07;;;;;;;;;;;0.40;99.90;;;;;;4963897;28;19921;-85
2021/12/08 06:04:33;;;;;;;;;;;0.40;99.90;;;;;;4993706;28;19953;-84
2021/12/08 06:06:59;;;;;;;;;;;0.40;99.90;;;;;;5011563;28;20568;-85
2021/12/08 06:09:26;;;;;;;;;;;0.40;99.90;;;;;;4980211;28;20293;-86
2021/12/08 06:11:52;;;;;;;;;;;0.40;99.90;;;;;;5011058;28;19909;-85
2021/12/08 06:14:19;;;;;;;;;;;0.50;99.90;;;;;;5009774;28;19918;-85
2021/12/08 06:16:46;;;;;;;;;;;0.50;99.90;;;;;;4974619;28;19910;-85
2021/12/08 06:19:12;;;;;;;;;;;0.50;99.90;;;;;;4994390;28;20398;-85
2021/12/08 06:21:38;;;;;;;;;;;0.50;99.90;;;;;;4978260;28;19917;-85
2021/12/08 06:24:06;;;;;;;;;;;0.50;99.90;;;;;;4976354;28;20011;-85
2021/12/08 06:26:31;;;;;;;;;;;0.50;99.90;;;;;;4997521;28;20016;-86
2021/12/08 06:28:58;;;;;;;;;;;0.50;99.90;;;;;;4980123;28;20064;-86
2021/12/08 06:31:25;;;;;;;;;;;0.40;99.90;;;;;;4978067;28;19913;-85
2021/12/08 06:33:52;;;;;;;;;;;0.40;99.90;;;;;;4978374;28;19956;-84
2021/12/08 06:36:23;;;;;;;;;;;0.40;99.90;;;;;;5011237;28;19909;-86
2021/12/08 06:38:50;;;;;;;;;;;0.50;99.90;;;;;;5001678;23;19927;-81
2021/12/08 06:41:18;;;;;;;;;;;0.40;99.90;;;;;;5012703;28;19917;-79
2021/12/08 06:43:48;;;;;;;;;;;0.40;99.90;;;;;;5009962;28;19984;-80
2021/12/08 06:46:15;;;;;;;;;;;0.40;99.90;;;;;;4983295;28;20378;-79
2021/12/08 06:48:43;;;;;;;;;;;0.40;99.90;;;;;;5011704;28;19953;-80
2021/12/08 06:51:13;;;;;;;;;;;0.40;99.90;;;;;;5010905;28;19920;-79
2021/12/08 06:53:39;;;;;;;;;;;0.40;99.90;;;;;;4997415;28;19931;-80
2021/12/08 06:56:08;;;;;;;;;;;0.40;99.90;;;;;;5024385;28;19917;-81
2021/12/08 06:58:35;;;;;;;;;;;0.40;99.90;;;;;;4990888;28;20284;-80
2021/12/08 07:04:08;;;;;;;;;;;0.30;99.90;;;;;;5014644;28;20444;-80
2021/12/08 07:06:42;;;;;;;;;;;0.30;99.90;;;;;;5008545;28;20337;-80
2021/12/08 07:09:12;;;;;;;;;;;0.20;99.90;;;;;;4977604;28;19921;-80
2021/12/08 07:11:38;;;;;;;;;;;0.20;99.90;;;;;;5015723;28;19917;-79
2021/12/08 07:14:03;;;;;;;;;;;0.10;99.90;;;;;;5012077;28;19931;-79
2021/12/08 07:16:31;;;;;;;;;;;0.00;99.90;;;;;;5022742;28;19968;-81
2021/12/08 07:19:01;;;;;;;;;;;0.00;99.90;;;;;;5025798;28;19936;-80
2021/12/08 07:21:30;;;;;;;;;;;0.00;99.90;;;;;;5019025;28;20001;-80
2021/12/08 07:24:19;;;;;;;;;;;0.00;99.90;;;;;;5020764;28;19920;-80
2021/12/08 07:26:46;;;;;;;;;;;0.00;99.90;;;;;;5006113;28;20409;-80
2021/12/08 07:29:13;;;;;;;;;;;0.00;99.90;;;;;;4995946;28;19917;-80
2021/12/08 07:31:46;;;;;;;;;;;0.00;99.90;;;;;;4999924;28;19920;-80
2021/12/08 07:34:17;;;;;;;;;;;0.00;99.90;;;;;;4998962;28;19913;-80
2021/12/08 07:36:44;;;;;;;;;;;0.10;99.90;;;;;;4996650;28;20013;-79
2021/12/08 07:39:14;;;;;;;;;;;0.10;99.90;;;;;;4998990;28;20015;-80
2021/12/08 07:41:41;;;;;;;;;;;0.10;99.90;;;;;;4996058;28;19917;-80
2021/12/08 07:44:09;;;;;;;;;;;0.10;99.90;;;;;;4996352;28;19921;-80
2021/12/08 07:46:37;;;;;;;;;;;0.10;99.90;;;;;;4987426;28;19910;-81
2021/12/08 07:49:14;;;;;;;;;;;0.10;99.90;;;;;;4994776;28;19952;-80
2021/12/08 07:51:46;;;;;;;;;;;0.20;99.90;;;;;;4998689;28;20322;-80
2021/12/08 07:54:11;;;;;;;;;;;0.20;99.90;;;;;;5009455;28;20754;-80
2021/12/08 07:56:38;;;;;;;;;;;0.20;99.90;;;;;;5021319;28;19944;-80
2021/12/08 07:59:05;;;;;;;;;;;0.30;99.90;;;;;;5003142;28;19913;-79
2021/12/08 08:01:36;;;;;;;;;;;0.30;99.90;;;;;;5015419;28;19997;-80
2021/12/08 08:04:04;;;;;;;;;;;0.30;99.90;;;;;;5014689;28;19914;-79
2021/12/08 08:06:33;;;;;;;;;;;0.30;99.90;;;;;;5015476;28;20015;-80
2021/12/08 08:08:59;;;;;;;;;;;0.30;99.90;;;;;;5000109;28;19971;-80
2021/12/08 08:11:36;;;;;;;;;;;0.30;99.90;;;;;;5001174;28;19923;-80
2021/12/08 08:14:03;;;;;;;;;;;0.30;99.90;;;;;;5002683;28;19913;-80
2021/12/08 08:16:32;;;;;;;;;;;0.30;99.90;;;;;;4985709;28;19921;-80
2021/12/08 08:19:05;;;;;;;;;;;0.30;99.90;;;;;;5019724;28;19921;-78
2021/12/08 08:21:33;;;;;;;;;;;0.30;99.90;;;;;;5018611;28;19922;-80
2021/12/08 08:24:00;;;;;;;;;;;0.30;99.90;;;;;;5017503;28;20291;-80
2021/12/08 08:26:27;;;;;;;;;;;0.30;99.90;;;;;;5020006;28;19936;-79
2021/12/08 08:28:52;;;;;;;;;;;0.30;99.90;;;;;;5020409;28;19909;-79
2021/12/08 08:31:27;;;;;;;;;;;0.30;99.90;;;;;;5002953;28;20943;-80
2021/12/08 08:33:52;;;;;;;;;;;0.30;99.90;;;;;;5014419;28;19913;-79
2021/12/08 08:36:21;;;;;;;;;;;0.20;99.90;;;;;;4999426;28;19940;-80
2021/12/08 08:38:46;;;;;;;;;;;0.20;99.90;;;;;;5019688;28;19917;-80
2021/12/08 08:41:17;;;;;;;;;;;0.10;99.90;;;;;;5019288;28;20031;-80
2021/12/08 08:43:43;;;;;;;;;;;0.10;99.90;;;;;;4996621;28;19909;-79
2021/12/08 08:46:11;;;;;;;;;;;0.10;99.90;;;;;;5001368;28;19913;-79
2021/12/08 08:48:39;;;;;;;;;;;0.10;99.90;;;;;;5018780;28;20510;-79
2021/12/08 08:51:07;;;;;;;;;;;0.10;99.90;;;;;;5019364;28;19944;-79
2021/12/08 08:53:35;;;;;;;;;;;0.10;99.90;;;;;;5015548;28;19909;-79
2021/12/08 08:56:06;;;;;;;;;;;0.10;99.90;;;;;;5000943;28;19917;-80
2021/12/08 08:58:33;;;;;;;;;;;0.00;99.90;;;;;;5018419;28;19921;-79
2021/12/08 09:01:01;;;;;;;;;;;0.00;99.90;;;;;;5000659;28;19956;-79
2021/12/08 09:03:28;;;;;;;;;;;0.00;99.90;;;;;;5005141;28;19924;-80
2021/12/08 09:05:56;;;;;;;;;;;0.00;99.90;;;;;;4987911;28;19909;-79
2021/12/08 09:08:24;;;;;;;;;;;0.00;99.90;;;;;;5003315;28;20314;-78
2021/12/08 09:10:49;;;;;;;;;;;0.00;99.90;;;;;;5018233;28;19943;-79
2021/12/08 09:13:26;;;;;;;;;;;0.00;99.90;;;;;;5017751;28;19913;-79
2021/12/08 09:15:57;;;;;;;;;;;0.00;99.90;;;;;;5017194;28;20011;-79
2021/12/08 09:18:29;;;;;;;;;;;-0.10;99.90;;;;;;5016565;28;19955;-79
2021/12/08 09:21:01;;;;;;;;;;;-0.10;99.90;;;;;;5017719;28;19913;-79
2021/12/08 09:23:32;;;;;;;;;;;-0.10;99.90;;;;;;5000509;28;20279;-79
2021/12/08 09:26:00;;;;;;;;;;;-0.10;99.90;;;;;;5004367;28;19918;-79
2021/12/08 09:28:29;;;;;;;;;;;-0.10;99.90;;;;;;5000933;28;19917;-79
2021/12/08 09:31:11;;;;;;;;;;;-0.10;99.90;;;;;;4994456;28;19960;-79
2021/12/08 09:33:42;;;;;;;;;;;-0.10;99.90;;;;;;5010191;28;20004;-78
2021/12/08 09:36:13;;;;;;;;;;;-0.10;99.90;;;;;;5000885;28;19909;-80
2021/12/08 09:38:41;;;;;;;;;;;-0.10;99.90;;;;;;4997718;28;19925;-79
2021/12/08 09:41:29;;;;;;;;;;;0.00;99.90;;;;;;5008570;28;19918;-80
2021/12/08 09:43:57;;;;;;;;;;;0.00;99.90;;;;;;5009546;28;19917;-80
2021/12/08 09:46:32;;;;;;;;;;;0.00;99.90;;;;;;4994966;28;19913;-80
2021/12/08 09:48:57;;;;;;;;;;;0.00;99.90;;;;;;5012611;28;19913;-81
2021/12/08 09:51:24;;;;;;;;;;;0.10;99.90;;;;;;5013959;28;20291;-79
2021/12/08 09:53:50;;;;;;;;;;;0.10;99.90;;;;;;5009635;28;19988;-80
2021/12/08 09:56:16;;;;;;;;;;;0.10;99.90;;;;;;5008213;28;19913;-81
2021/12/08 09:58:42;;;;;;;;;;;0.10;99.90;;;;;;5008111;28;19921;-79
2021/12/08 10:01:12;;;;;;;;;;;0.10;99.90;;;;;;5013825;28;19920;-82
2021/12/08 10:03:38;;;;;;;;;;;0.10;99.90;;;;;;4992461;28;19910;-81
2021/12/08 10:06:03;;;;;;;;;;;0.10;99.90;;;;;;4981202;28;19929;-81
2021/12/08 10:08:29;;;;;;;;;;;0.10;99.90;;;;;;5012746;28;19910;-79
2021/12/08 10:10:55;;;;;;;;;;;0.10;99.90;;;;;;5011762;28;19917;-81
2021/12/08 10:13:21;;;;;;;;;;;0.10;99.90;;;;;;5013184;28;19913;-81
2021/12/08 10:15:46;;;;;;;;;;;0.10;99.90;;;;;;5009870;28;19964;-80
2021/12/08 10:18:12;;;;;;;;;;;0.10;99.90;;;;;;5013251;28;20004;-81
2021/12/08 10:20:40;;;;;;;;;;;0.10;99.90;;;;;;4996551;28;19964;-81
2021/12/08 10:23:15;;;;;;;;;;;0.10;99.90;;;;;;4995496;28;20277;-82
2021/12/08 10:25:46;;;;;;;;;;;0.10;99.90;;;;;;5012442;28;19961;-81
2021/12/08 10:28:11;;;;;;;;;;;0.20;99.90;;;;;;4993689;28;20466;-80
2021/12/08 10:30:41;;;;;;;;;;;0.20;99.90;;;;;;4979230;28;19949;-82
2021/12/08 10:33:17;;;;;;;;;;;0.30;99.90;;;;;;5010388;28;19924;-81
2021/12/08 10:35:47;;;;;;;;;;;0.30;99.90;;;;;;5008536;28;19909;-82
2021/12/08 10:38:16;;;;;;;;;;;0.40;99.90;;;;;;4972777;28;19914;-81
2021/12/08 10:40:59;;;;;;;;;;;0.40;99.90;;;;;;4963403;28;19986;-81
2021/12/08 10:43:25;;;;;;;;;;;0.30;99.90;;;;;;4976586;28;19914;-80
2021/12/08 10:45:58;;;;;;;;;;;0.30;99.90;;;;;;4993076;28;19917;-80
2021/12/08 10:48:32;;;;;;;;;;;0.40;99.90;;;;;;5013510;28;20298;-82
2021/12/08 10:56:33;;;;;;;;;;;0.40;99.90;;;;;;5010062;28;19916;-81
2021/12/08 10:58:59;;;;;;;;;;;0.30;99.90;;;;;;4988177;28;19921;-82
2021/12/08 11:01:25;;;;;;;;;;;0.30;99.90;;;;;;4995884;28;19913;-80
2021/12/08 11:03:58;;;;;;;;;;;0.30;99.90;;;;;;4988631;28;19916;-82
2021/12/08 11:06:28;;;;;;;;;;;0.30;99.90;;;;;;5012723;28;19921;-81
2021/12/08 11:08:56;;;;;;;;;;;0.40;99.90;;;;;;4992577;28;19916;-82
2021/12/08 11:11:24;;;;;;;;;;;0.40;99.90;;;;;;4992709;28;19909;-81
2021/12/08 11:13:51;;;;;;;;;;;0.40;99.90;;;;;;4990949;28;19910;-82
2021/12/08 11:16:19;;;;;;;;;;;0.50;99.90;;;;;;4991261;28;19917;-82
2021/12/08 11:19:04;;;;;;;;;;;0.50;99.90;;;;;;5000055;28;19975;-82
2021/12/08 11:21:36;;;;;;;;;;;0.50;99.90;;;;;;4995139;28;19913;-82
2021/12/08 11:24:06;;;;;;;;;;;0.50;99.90;;;;;;5003134;28;19917;-82
2021/12/08 11:26:37;;;;;;;;;;;0.60;99.90;;;;;;4978472;28;20004;-81
2021/12/08 11:29:04;;;;;;;;;;;0.60;99.90;;;;;;4988115;28;19914;-83
2021/12/08 11:31:36;;;;;;;;;;;0.60;99.90;;;;;;4998411;28;19984;-82
2021/12/08 11:34:05;;;;;;;;;;;0.70;99.90;;;;;;5009006;28;19913;-82
2021/12/08 11:36:35;;;;;;;;;;;0.70;99.90;;;;;;4991444;28;19952;-82
2021/12/08 11:39:06;;;;;;;;;;;0.70;99.90;;;;;;5006789;28;19918;-83
2021/12/08 11:41:37;;;;;;;;;;;0.70;99.90;;;;;;4993224;28;19917;-82
2021/12/08 11:44:04;;;;;;;;;;;0.70;99.90;;;;;;4997773;23;19925;-87
2021/12/08 11:46:33;;;;;;;;;;;0.70;99.90;;;;;;4974313;28;19928;-86
2021/12/08 11:49:08;;;;;;;;;;;0.70;99.90;;;;;;4993459;28;20375;-88
2021/12/08 11:51:48;;;;;;;;;;;0.70;99.90;;;;;;4980778;28;19918;-87
2021/12/08 11:54:22;;;;;;;;;;;0.70;99.90;;;;;;4985346;28;19909;-88
2021/12/08 11:56:47;;;;;;;;;;;0.70;99.90;;;;;;4986860;28;19936;-88
2021/12/08 11:59:14;;;;;;;;;;;0.70;99.90;;;;;;4991066;28;19956;-89
2021/12/08 12:01:40;;;;;;;;;;;0.70;99.90;;;;;;4977402;28;19928;-87
2021/12/08 12:04:07;;;;;;;;;;;0.70;99.90;;;;;;4990186;28;19910;-87
2021/12/08 12:06:33;;;;;;;;;;;0.70;99.90;;;;;;4959384;28;19918;-89
2021/12/08 12:09:00;;;;;;;;;;;0.70;99.90;;;;;;4974777;28;19910;-88
2021/12/08 12:11:26;;;;;;;;;;;0.80;99.90;;;;;;4967131;28;19959;-90
2021/12/08 12:13:53;;;;;;;;;;;0.70;99.90;;;;;;4972111;28;19913;-89
2021/12/08 12:16:19;;;;;;;;;;;0.70;99.90;;;;;;4986828;28;19920;-90
2021/12/08 12:18:45;;;;;;;;;;;0.70;99.90;;;;;;4974033;28;19957;-89
2021/12/08 12:21:22;;;;;;;;;;;0.70;99.90;;;;;;4991432;28;19982;-89
2021/12/08 12:23:53;;;;;;;;;;;0.70;99.90;;;;;;4978816;28;19916;-88
2021/12/08 12:26:22;;;;;;;;;;;0.60;99.90;;;;;;4986753;28;19920;-88
2021/12/08 12:28:51;;;;;;;;;;;0.60;99.90;;;;;;4970987;28;19917;-89
2021/12/08 12:31:22;;;;;;;;;;;0.60;99.90;;;;;;4988715;28;19964;-88
2021/12/08 12:33:49;;;;;;;;;;;0.50;99.90;;;;;;4969450;28;20358;-88
2021/12/08 12:36:32;;;;;;;;;;;0.50;99.90;;;;;;4986145;28;19909;-88
2021/12/08 12:41:31;;;;;;;;;;;0.50;99.90;;;;;;5001103;28;19926;-82
2021/12/08 12:44:14;;;;;;;;;;;0.50;99.90;;;;;;5023697;28;20426;-82
2021/12/08 12:46:59;;;;;;;;;;;0.50;99.90;;;;;;5034451;28;20378;-80
2021/12/08 12:49:24;;;;;;;;;;;0.50;99.90;;;;;;5013826;28;20645;-82
2021/12/08 12:51:57;;;;;;;;;;;0.60;99.90;;;;;;4994245;28;19920;-79
2021/12/08 12:54:24;;;;;;;;;;;0.60;99.90;;;;;;5008592;28;20516;-80
2021/12/08 12:56:50;;;;;;;;;;;0.60;99.90;;;;;;4992932;28;19920;-80
2021/12/08 12:59:16;;;;;;;;;;;0.60;99.90;;;;;;5002526;28;19913;-82
2021/12/08 13:01:49;;;;;;;;;;;0.60;99.90;;;;;;5034559;28;19924;-79
2021/12/08 13:04:20;;;;;;;;;;;0.60;99.90;;;;;;5010847;28;20013;-79
2021/12/08 13:06:50;;;;;;;;;;;0.60;99.90;;;;;;5008431;28;20587;-82
2021/12/08 13:09:35;;;;;;;;;;;0.60;99.90;;;;;;5011005;28;19916;-82
2021/12/08 13:12:08;;;;;;;;;;;0.60;99.90;;;;;;5025175;28;20387;-80
2021/12/08 13:14:34;;;;;;;;;;;0.60;99.90;;;;;;4977480;28;19910;-81
2021/12/08 13:17:26;;;;;;;;;;;0.70;99.90;;;;;;5009248;28;19909;-81
2021/12/08 13:19:56;;;;;;;;;;;0.70;99.90;;;;;;4998787;28;19921;-82
2021/12/08 13:22:40;;;;;;;;;;;0.70;99.90;;;;;;4998254;28;19921;-81
2021/12/08 13:26:03;;;;;;;;;;;0.70;99.90;;;;;;4992746;28;19909;-79
2021/12/08 13:28:38;;;;;;;;;;;0.70;99.90;;;;;;4990764;28;20359;-81
2021/12/08 13:34:10;;;;;;;;;;;0.70;99.90;;;;;;5016325;28;20519;-81
2021/12/08 13:36:37;;;;;;;;;;;0.60;99.90;;;;;;5021484;28;19909;-81
2021/12/08 13:39:12;;;;;;;;;;;0.70;99.90;;;;;;4987927;28;19917;-82
2021/12/08 13:41:41;;;;;;;;;;;0.70;99.90;;;;;;5038643;28;20391;-80
2021/12/08 13:44:22;;;;;;;;;;;0.70;99.90;;;;;;5010066;28;19935;-81
2021/12/08 13:46:49;;;;;;;;;;;0.70;99.90;;;;;;4994352;28;19910;-80
2021/12/08 13:49:24;;;;;;;;;;;0.70;99.90;;;;;;5017679;28;19909;-78
2021/12/08 13:52:07;;;;;;;;;;;0.70;99.90;;;;;;4984025;28;19913;-80
2021/12/08 13:54:37;;;;;;;;;;;0.70;99.90;;;;;;4989360;28;20008;-80
2021/12/08 13:57:04;;;;;;;;;;;0.70;99.90;;;;;;5015872;28;19925;-80
2021/12/08 13:59:49;;;;;;;;;;;0.70;99.90;;;;;;5013900;28;20287;-81
2021/12/08 14:02:18;;;;;;;;;;;0.70;99.90;;;;;;4996972;28;19940;-80
2021/12/08 14:04:44;;;;;;;;;;;0.70;99.90;;;;;;4973112;28;20350;-80
2021/12/08 14:07:19;;;;;;;;;;;0.60;99.90;;;;;;4977710;28;19913;-79
2021/12/08 14:09:46;;;;;;;;;;;0.70;99.90;;;;;;4994262;28;19956;-81
2021/12/08 14:12:11;;;;;;;;;;;0.70;99.90;;;;;;4974594;28;20408;-81
2021/12/08 14:14:37;;;;;;;;;;;0.70;99.90;;;;;;4992318;28;19925;-81
2021/12/08 14:17:02;;;;;;;;;;;0.70;99.90;;;;;;5023659;28;19921;-82
2021/12/08 14:19:38;;;;;;;;;;;0.70;99.90;;;;;;5014353;28;20291;-81
2021/12/08 14:22:04;;;;;;;;;;;0.80;99.90;;;;;;5029257;28;19921;-80
2021/12/08 14:24:29;;;;;;;;;;;0.80;99.90;;;;;;5022481;28;19983;-80
2021/12/08 14:26:56;;;;;;;;;;;0.90;99.90;;;;;;4973594;28;19920;-81
2021/12/08 14:29:21;;;;;;;;;;;0.80;99.90;;;;;;4980008;28;19909;-81
2021/12/08 14:31:54;;;;;;;;;;;0.80;99.90;;;;;;4997477;28;20526;-80
2021/12/08 14:34:26;;;;;;;;;;;0.80;99.90;;;;;;5020020;28;20000;-81
2021/12/08 14:36:54;;;;;;;;;;;0.70;99.90;;;;;;4995250;28;19967;-80
2021/12/08 14:39:25;;;;;;;;;;;0.70;99.90;;;;;;5029057;28;19909;-79
2021/12/08 14:41:53;;;;;;;;;;;0.60;99.90;;;;;;5004007;28;19923;-80
2021/12/08 14:44:21;;;;;;;;;;;0.60;99.90;;;;;;4989359;28;19962;-79
2021/12/08 14:46:48;;;;;;;;;;;0.60;99.90;;;;;;4993620;28;19913;-81
2021/12/08 14:49:17;;;;;;;;;;;0.60;99.90;;;;;;5000365;28;20006;-80
2021/12/08 14:51:44;;;;;;;;;;;0.60;99.90;;;;;;5004666;28;19913;-81
2021/12/08 14:54:12;;;;;;;;;;;0.60;99.90;;;;;;5020240;28;19909;-80
2021/12/08 14:56:38;;;;;;;;;;;0.60;99.90;;;;;;4997003;28;20484;-80
2021/12/08 14:59:04;;;;;;;;;;;0.60;99.90;;;;;;5015416;28;20079;-81
2021/12/08 15:01:30;;;;;;;;;;;0.60;99.90;;;;;;4991276;28;19923;-81
2021/12/08 15:03:56;;;;;;;;;;;0.60;99.90;;;;;;4998875;28;19913;-80
2021/12/08 15:06:22;;;;;;;;;;;0.60;99.90;;;;;;5022518;28;19995;-81
2021/12/08 15:08:48;;;;;;;;;;;0.60;99.90;;;;;;4984808;28;19913;-81
2021/12/08 15:11:19;;;;;;;;;;;0.60;99.90;;;;;;5018674;28;19956;-80
2021/12/08 15:13:44;;;;;;;;;;;0.60;99.90;;;;;;4981116;28;19914;-80
2021/12/08 15:16:18;;;;;;;;;;;0.60;99.90;;;;;;5011231;28;19996;-80
2021/12/08 15:18:45;;;;;;;;;;;0.70;99.90;;;;;;4993995;28;20326;-80
2021/12/08 15:21:13;;;;;;;;;;;0.70;99.90;;;;;;5005264;28;19917;-80
2021/12/08 15:23:46;;;;;;;;;;;0.70;99.90;;;;;;5009636;28;19941;-81
2021/12/08 15:26:13;;;;;;;;;;;0.80;99.90;;;;;;4992131;28;19913;-81
2021/12/08 15:28:39;;;;;;;;;;;0.80;99.90;;;;;;4998238;28;20493;-80
2021/12/08 15:31:06;;;;;;;;;;;0.70;99.90;;;;;;5000847;28;20278;-80
2021/12/08 15:33:32;;;;;;;;;;;0.80;99.90;;;;;;4990834;28;19964;-81